Allston, Massachusetts
Current Conditions -  °F | °C
As of 3:30 AM on Friday 24 Oct 2014 (Local Time) from KBOS Reporting Station
Moderate Rain Moderate Rain  
Wind Chill:   Ceiling: 1000
Heat Index:   Visibility: 2.5mi
Dew Point:   Wind: 14mph
Humidity: 93%   Direction: 330°NNW
Pressure: 29.66"   Gusts: NA
Location:  42.36°N, 71.13°W
Report Text: KBOS 240730Z 33012KT 2 1/2SM RA BR BKN010 OVC014 09/08 A2966 RMK AO2 RAB10 P0002
Loading
Personal Weather Stations






























Interactive Weather Map
Tropical Storm Tracking
New forecast layout! Learn more

10-Day Weather Forecast

Advertisements
Track Severe Weather on mobile